createdAt,value
2019-06-20T00:01:28.264Z,24.49
2019-06-20T00:03:58.044Z,24.43
2019-06-20T00:06:27.823Z,24.37
2019-06-20T00:08:57.597Z,24.39
2019-06-20T00:11:27.384Z,24.39
2019-06-20T00:13:57.432Z,24.25
2019-06-20T00:16:27.218Z,24.01
2019-06-20T00:18:56.970Z,23.93
2019-06-20T00:21:26.733Z,23.87
2019-06-20T00:23:56.623Z,23.79
2019-06-20T00:26:26.377Z,23.74
2019-06-20T00:28:56.404Z,23.71
2019-06-20T00:31:26.179Z,23.56
2019-06-20T00:33:56.166Z,23.48
2019-06-20T00:36:25.921Z,23.53
2019-06-20T00:38:55.901Z,23.58
2019-06-20T00:41:25.632Z,23.59
2019-06-20T00:43:55.492Z,23.61
2019-06-20T00:46:25.499Z,23.56
2019-06-20T00:48:55.265Z,23.48
2019-06-20T00:51:25.184Z,23.45
2019-06-20T00:53:55.014Z,23.43
2019-06-20T00:56:25.160Z,23.44
2019-06-20T00:58:54.997Z,23.33
2019-06-20T01:01:25.010Z,23.33
2019-06-20T01:03:54.785Z,23.34
2019-06-20T01:06:24.576Z,23.14
2019-06-20T01:08:54.359Z,23.14
2019-06-20T01:11:24.129Z,23.26
2019-06-20T01:13:53.895Z,23.26
2019-06-20T01:16:23.959Z,23.35
2019-06-20T01:18:54.316Z,23.37
2019-06-20T01:21:24.111Z,23.37
2019-06-20T01:23:53.978Z,23.31
2019-06-20T01:26:23.689Z,23.09
2019-06-20T01:28:54.063Z,23.04
2019-06-20T01:31:23.897Z,22.90
2019-06-20T01:33:53.666Z,22.81
2019-06-20T01:36:23.811Z,22.61
2019-06-20T01:38:53.598Z,22.51
2019-06-20T01:41:23.543Z,22.41
2019-06-20T01:43:53.344Z,22.30
2019-06-20T01:46:23.128Z,22.25
2019-06-20T01:48:52.946Z,22.13
2019-06-20T01:51:23.025Z,22.13
2019-06-20T01:53:52.899Z,21.95
2019-06-20T01:56:22.647Z,21.95
2019-06-20T01:58:52.423Z,21.85
2019-06-20T02:01:22.506Z,21.85
2019-06-20T02:03:52.738Z,21.80
2019-06-20T02:06:22.519Z,21.72
2019-06-20T02:08:52.272Z,21.72
2019-06-20T02:11:22.383Z,21.60
2019-06-20T02:14:06.457Z,21.53
2019-06-20T02:16:23.654Z,21.49
2019-06-20T02:18:53.408Z,21.38
2019-06-20T02:21:23.246Z,21.31
2019-06-20T02:23:53.003Z,21.21
2019-06-20T02:26:22.754Z,21.37
2019-06-20T02:28:52.569Z,21.24
2019-06-20T02:31:22.318Z,21.13
2019-06-20T02:33:52.109Z,21.08
2019-06-20T02:36:21.862Z,21.01
2019-06-20T02:38:51.624Z,20.97
2019-06-20T02:41:21.374Z,20.95
2019-06-20T02:43:51.119Z,21.11
2019-06-20T02:46:21.155Z,21.08
2019-06-20T02:48:51.869Z,21.01
2019-06-20T02:51:24.848Z,20.99
2019-06-20T02:53:55.676Z,20.95
2019-06-20T02:56:25.443Z,20.88
2019-06-20T02:58:55.209Z,20.88
2019-06-20T03:01:25.849Z,20.87
2019-06-20T03:03:55.598Z,20.84
2019-06-20T03:06:25.419Z,20.90
2019-06-20T03:08:55.185Z,21.00
2019-06-20T03:11:25.148Z,20.90
2019-06-20T03:13:54.914Z,20.88
2019-06-20T03:16:24.662Z,20.90
2019-06-20T03:18:54.464Z,20.89
2019-06-20T03:21:24.455Z,20.89
2019-06-20T03:23:54.489Z,20.95
2019-06-20T03:26:24.245Z,21.00
2019-06-20T03:28:53.985Z,20.93
2019-06-20T03:31:23.737Z,21.05
2019-06-20T03:33:53.720Z,20.97
2019-06-20T03:36:23.496Z,20.90
2019-06-20T03:38:53.291Z,20.92
2019-06-20T03:41:23.064Z,20.89
2019-06-20T03:43:54.092Z,20.93
2019-06-20T03:46:24.429Z,20.92
2019-06-20T03:48:54.242Z,20.95
2019-06-20T03:51:24.015Z,21.00
2019-06-20T03:53:53.751Z,21.01
2019-06-20T03:56:24.795Z,21.00
2019-06-20T03:58:54.797Z,20.90
2019-06-20T04:01:24.559Z,20.90
2019-06-20T04:03:54.329Z,20.93
2019-06-20T04:06:24.074Z,21.04
2019-06-20T04:08:53.843Z,21.04
2019-06-20T04:11:24.594Z,21.10
2019-06-20T04:13:54.442Z,21.21
2019-06-20T04:16:24.257Z,21.23
2019-06-20T04:18:54.015Z,21.30
2019-06-20T04:21:23.752Z,21.33
2019-06-20T04:23:53.500Z,21.35
2019-06-20T04:26:23.256Z,21.30
2019-06-20T04:28:53.003Z,21.36
2019-06-20T04:31:22.760Z,21.39
2019-06-20T04:33:52.489Z,21.47
2019-06-20T04:36:22.242Z,21.46
2019-06-20T04:38:51.971Z,21.43
2019-06-20T04:41:21.724Z,21.47
2019-06-20T04:43:52.509Z,21.47
2019-06-20T04:46:27.788Z,21.45
2019-06-20T04:48:57.533Z,21.41
2019-06-20T04:51:27.281Z,21.52
2019-06-20T04:53:57.083Z,21.60
2019-06-20T04:56:26.878Z,21.67
2019-06-20T04:58:56.724Z,21.69
2019-06-20T05:01:26.478Z,21.83
2019-06-20T05:03:56.240Z,21.99
2019-06-20T05:06:25.977Z,22.17
2019-06-20T05:08:55.815Z,22.31
2019-06-20T05:11:25.565Z,22.42
2019-06-20T05:13:55.610Z,22.58
2019-06-20T05:16:25.364Z,22.73
2019-06-20T05:18:55.416Z,22.88
2019-06-20T05:21:25.193Z,22.95
2019-06-20T05:23:55.028Z,23.09
2019-06-20T05:26:24.776Z,23.10
2019-06-20T05:28:54.553Z,23.27
2019-06-20T05:31:24.550Z,23.21
2019-06-20T05:33:54.709Z,23.07
2019-06-20T05:36:24.470Z,23.24
2019-06-20T05:38:54.223Z,23.24
2019-06-20T05:41:23.972Z,23.31
2019-06-20T05:43:53.777Z,23.31
2019-06-20T05:46:23.511Z,23.31
2019-06-20T05:48:53.580Z,23.21
2019-06-20T05:51:24.070Z,23.11
2019-06-20T05:53:53.930Z,23.11
2019-06-20T05:56:23.685Z,23.02
2019-06-20T05:58:53.436Z,23.02
2019-06-20T06:01:23.473Z,23.19
2019-06-20T06:03:53.228Z,23.18
2019-06-20T06:06:23.020Z,23.18
2019-06-20T06:08:52.776Z,23.22
2019-06-20T06:11:22.576Z,23.21
2019-06-20T06:13:53.345Z,23.10
2019-06-20T06:16:27.223Z,23.11
2019-06-20T06:18:55.061Z,23.11
2019-06-20T06:21:24.922Z,22.83
2019-06-20T06:23:54.756Z,22.55
2019-06-20T06:26:24.502Z,22.55
2019-06-20T06:28:55.529Z,22.20
2019-06-20T06:31:25.289Z,21.96
2019-06-20T06:33:55.037Z,21.71
2019-06-20T06:36:24.788Z,21.34
2019-06-20T06:38:54.530Z,21.08
2019-06-20T06:41:24.293Z,21.12
2019-06-20T06:43:54.045Z,20.99
2019-06-20T06:46:24.116Z,20.80
2019-06-20T06:48:53.880Z,20.86
2019-06-20T06:51:23.643Z,20.98
2019-06-20T06:53:53.409Z,20.87
2019-06-20T06:56:23.152Z,20.85
2019-06-20T06:58:52.935Z,20.99
2019-06-20T07:01:22.752Z,20.90
2019-06-20T07:03:52.579Z,20.79
2019-06-20T07:06:22.654Z,20.77
2019-06-20T07:08:52.464Z,20.78
2019-06-20T07:11:22.482Z,20.75
2019-06-20T07:13:52.657Z,20.78
2019-06-20T07:16:22.446Z,20.80
2019-06-20T07:18:53.369Z,20.84
2019-06-20T07:21:23.135Z,21.08
2019-06-20T07:23:53.109Z,21.10
2019-06-20T07:26:22.902Z,21.17
2019-06-20T07:28:52.969Z,21.32
2019-06-20T07:31:22.796Z,21.51
2019-06-20T07:33:52.535Z,21.58
2019-06-20T07:36:22.312Z,21.83
2019-06-20T07:38:52.053Z,21.74
2019-06-20T07:41:21.861Z,21.60
2019-06-20T07:43:51.634Z,21.48
2019-06-20T07:46:21.694Z,21.45
2019-06-20T07:48:51.763Z,21.40
2019-06-20T07:51:22.015Z,21.28
2019-06-20T07:53:51.962Z,21.32
2019-06-20T07:56:21.910Z,21.18
2019-06-20T07:58:51.985Z,21.18
2019-06-20T08:01:21.756Z,21.16
2019-06-20T08:03:51.514Z,21.22
2019-06-20T08:06:21.498Z,21.23
2019-06-20T08:08:51.291Z,21.29
2019-06-20T08:11:21.541Z,21.27
2019-06-20T08:13:51.326Z,21.29
2019-06-20T08:16:21.382Z,21.41
2019-06-20T08:18:51.155Z,21.34
2019-06-20T08:21:20.915Z,21.37
2019-06-20T08:23:50.688Z,21.46
2019-06-20T08:26:20.785Z,21.61
2019-06-20T08:29:07.112Z,21.60
2019-06-20T08:31:22.150Z,21.70
2019-06-20T08:33:51.890Z,21.76
2019-06-20T08:36:21.703Z,21.84
2019-06-20T08:38:51.456Z,21.82
2019-06-20T08:41:21.393Z,21.94
2019-06-20T08:43:51.230Z,22.56
2019-06-20T08:46:21.551Z,22.75
2019-06-20T08:48:51.368Z,22.75
2019-06-20T08:51:21.209Z,23.36
2019-06-20T08:53:50.970Z,23.45
2019-06-20T08:56:21.028Z,23.45
2019-06-20T08:58:50.780Z,23.13
2019-06-20T09:01:20.718Z,23.90
2019-06-20T09:03:50.517Z,23.88
2019-06-20T09:06:20.460Z,23.57
2019-06-20T09:08:50.207Z,23.28
2019-06-20T09:11:19.961Z,23.15
2019-06-20T09:13:49.992Z,23.01
2019-06-20T09:16:24.576Z,23.01
2019-06-20T09:18:53.265Z,22.83
2019-06-20T09:21:22.646Z,22.66
2019-06-20T09:23:54.011Z,22.72
2019-06-20T09:26:24.070Z,22.92
2019-06-20T09:28:54.403Z,23.07
2019-06-20T09:31:25.835Z,23.28
2019-06-20T09:33:56.657Z,23.23
2019-06-20T09:36:26.415Z,23.16
2019-06-20T09:38:57.820Z,22.98
2019-06-20T09:41:27.956Z,23.11
2019-06-20T09:43:58.541Z,23.49
2019-06-20T09:46:28.394Z,24.26
2019-06-20T09:48:58.716Z,24.28
2019-06-20T09:51:28.616Z,24.35
2019-06-20T09:53:58.365Z,24.28
2019-06-20T09:56:28.148Z,24.29
2019-06-20T09:58:58.327Z,24.29
2019-06-20T10:01:28.616Z,24.32
2019-06-20T10:03:58.467Z,24.47
2019-06-20T10:06:29.293Z,24.45
2019-06-20T10:08:59.057Z,24.71
2019-06-20T10:11:30.052Z,24.93
2019-06-20T10:13:59.877Z,25.10
2019-06-20T10:16:42.419Z,25.14
2019-06-20T10:19:01.133Z,25.31
2019-06-20T10:21:30.868Z,26.18
2019-06-20T10:24:00.789Z,26.79
2019-06-20T10:26:30.916Z,27.24
2019-06-20T10:29:00.704Z,27.52
2019-06-20T10:31:30.501Z,27.82
2019-06-20T10:34:00.379Z,27.95
2019-06-20T10:36:30.146Z,28.01
2019-06-20T10:39:00.047Z,27.93
2019-06-20T10:41:30.132Z,28.01
2019-06-20T10:44:00.207Z,27.65
2019-06-20T10:46:29.973Z,26.78
2019-06-20T10:48:59.936Z,26.74
2019-06-20T10:51:45.547Z,26.56
2019-06-20T10:54:16.042Z,26.52
2019-06-20T10:56:47.145Z,26.34
2019-06-20T10:59:17.458Z,26.41
2019-06-20T11:01:48.377Z,26.38
2019-06-20T11:04:18.326Z,26.64
2019-06-20T11:06:48.089Z,27.15
2019-06-20T11:09:17.829Z,27.79
2019-06-20T11:11:48.768Z,28.16
2019-06-20T11:14:19.023Z,28.18
2019-06-20T11:16:49.317Z,28.04
2019-06-20T11:19:19.213Z,27.73
2019-06-20T11:21:49.050Z,27.86
2019-06-20T11:24:19.198Z,27.92
2019-06-20T11:26:49.159Z,27.88
2019-06-20T11:29:19.058Z,27.99
2019-06-20T11:31:49.605Z,27.55
2019-06-20T11:34:19.732Z,27.76
2019-06-20T11:36:49.494Z,28.01
2019-06-20T11:39:19.287Z,28.25
2019-06-20T11:41:49.103Z,28.72
2019-06-20T11:44:18.877Z,28.45
2019-06-20T11:46:49.481Z,28.63
2019-06-20T11:49:19.228Z,28.46
2019-06-20T11:51:49.080Z,28.16
2019-06-20T11:54:18.801Z,27.94
2019-06-20T11:56:48.663Z,27.67
2019-06-20T11:59:18.478Z,27.53
2019-06-20T12:01:49.086Z,27.16
2019-06-20T12:04:18.916Z,27.07
2019-06-20T12:06:49.351Z,26.82
2019-06-20T12:09:19.373Z,26.79
2019-06-20T12:11:49.197Z,26.91
2019-06-20T12:14:18.970Z,26.87
2019-06-20T12:16:48.818Z,26.92
2019-06-20T12:19:18.570Z,27.30
2019-06-20T12:21:49.128Z,27.79
2019-06-20T12:24:19.147Z,28.17
2019-06-20T12:26:48.944Z,28.54
2019-06-20T12:29:18.904Z,28.56
2019-06-20T12:31:48.637Z,28.45
2019-06-20T12:34:18.426Z,28.28
2019-06-20T12:36:48.631Z,28.03
2019-06-20T12:39:18.483Z,27.41
2019-06-20T12:41:48.320Z,27.10
2019-06-20T12:44:18.108Z,27.03
2019-06-20T12:46:49.042Z,26.92
2019-06-20T12:49:18.914Z,27.24
2019-06-20T12:51:49.076Z,27.37
2019-06-20T12:54:18.813Z,27.57
2019-06-20T12:56:48.643Z,27.77
2019-06-20T12:59:18.864Z,27.77
2019-06-20T13:01:49.946Z,27.91
2019-06-20T13:04:20.302Z,27.87
2019-06-20T13:06:50.273Z,27.54
2019-06-20T13:09:20.404Z,27.23
2019-06-20T13:11:50.301Z,27.19
2019-06-20T13:14:20.229Z,27.17
2019-06-20T13:16:51.148Z,27.15
2019-06-20T13:19:20.894Z,27.11
2019-06-20T13:21:50.669Z,27.09
2019-06-20T13:24:20.486Z,26.80
2019-06-20T13:26:51.419Z,26.79
2019-06-20T13:29:21.338Z,26.68
2019-06-20T13:32:02.058Z,26.58
2019-06-20T13:34:22.556Z,26.36
2019-06-20T13:36:52.463Z,26.27
2019-06-20T13:39:22.265Z,26.38
2019-06-20T13:41:52.095Z,26.12
2019-06-20T13:44:21.945Z,26.04
2019-06-20T13:46:51.803Z,26.02
2019-06-20T13:49:21.676Z,25.98
2019-06-20T13:51:51.480Z,25.87
2019-06-20T13:54:21.286Z,25.67
2019-06-20T13:56:51.815Z,25.52
2019-06-20T13:59:21.806Z,25.51
2019-06-20T14:02:05.887Z,25.18
2019-06-20T14:04:23.384Z,25.14
2019-06-20T14:06:53.821Z,24.94
2019-06-20T14:09:24.005Z,25.06
2019-06-20T14:11:54.176Z,25.36
2019-06-20T14:14:24.489Z,25.44
2019-06-20T14:16:55.301Z,25.66
2019-06-20T14:19:25.336Z,25.67
2019-06-20T14:21:56.545Z,25.74
2019-06-20T14:24:26.336Z,25.78
2019-06-20T14:26:56.065Z,25.83
2019-06-20T14:29:25.858Z,25.43
2019-06-20T14:31:55.739Z,25.22
2019-06-20T14:34:25.478Z,24.96
2019-06-20T14:36:55.364Z,24.84
2019-06-20T14:39:25.422Z,24.86
2019-06-20T14:41:55.361Z,24.71
2019-06-20T14:44:25.274Z,24.57
2019-06-20T14:46:55.044Z,24.61
2019-06-20T14:49:25.012Z,24.44
2019-06-20T14:51:55.165Z,24.47
2019-06-20T14:54:25.994Z,24.28
2019-06-20T14:56:58.161Z,24.29
2019-06-20T14:59:27.205Z,24.29
2019-06-20T15:01:57.057Z,24.39
2019-06-20T15:04:26.819Z,25.04
2019-06-20T15:06:56.561Z,25.04
2019-06-20T15:09:26.334Z,25.37
2019-06-20T15:11:56.123Z,25.62
2019-06-20T15:14:25.912Z,25.71
2019-06-20T15:16:55.656Z,25.72
2019-06-20T15:19:25.691Z,25.56
2019-06-20T15:21:56.555Z,25.46
2019-06-20T15:24:26.447Z,25.48
2019-06-20T15:26:56.526Z,25.77
2019-06-20T15:29:26.378Z,25.92
2019-06-20T15:31:56.980Z,25.88
2019-06-20T15:34:26.804Z,25.98
2019-06-20T15:36:57.806Z,25.94
2019-06-20T15:39:27.672Z,25.84
2019-06-20T15:41:58.245Z,25.89
2019-06-20T15:44:28.065Z,25.88
2019-06-20T15:46:58.850Z,25.87
2019-06-20T15:49:28.678Z,26.02
2019-06-20T15:51:59.214Z,26.06
2019-06-20T15:54:29.211Z,26.20
2019-06-20T15:56:59.151Z,26.12
2019-06-20T15:59:28.962Z,26.11
2019-06-20T16:01:58.730Z,26.07
2019-06-20T16:04:38.361Z,26.06
2019-06-20T16:07:08.384Z,26.17
2019-06-20T16:09:38.461Z,26.22
2019-06-20T16:12:08.341Z,26.19
2019-06-20T16:14:38.101Z,26.12
2019-06-20T16:17:07.964Z,26.07
2019-06-20T16:19:37.736Z,25.69
2019-06-20T16:22:07.571Z,25.67
2019-06-20T16:24:37.334Z,25.67
2019-06-20T16:27:07.116Z,25.80
2019-06-20T16:29:36.934Z,25.68
2019-06-20T16:32:06.922Z,25.65
2019-06-20T16:34:36.670Z,25.69
2019-06-20T16:37:10.076Z,25.73
2019-06-20T16:39:37.907Z,25.77
2019-06-20T16:42:07.689Z,25.68
2019-06-20T16:44:37.431Z,25.59
2019-06-20T16:47:07.285Z,25.51
2019-06-20T16:49:37.063Z,25.58
2019-06-20T16:52:06.841Z,25.54
2019-06-20T16:54:36.620Z,25.56
2019-06-20T16:57:06.411Z,25.57
2019-06-20T16:59:36.258Z,25.42
2019-06-20T17:02:06.028Z,25.39
2019-06-20T17:04:35.771Z,25.35
2019-06-20T17:07:05.613Z,25.21
2019-06-20T17:09:35.444Z,25.22
2019-06-20T17:12:05.364Z,25.22
2019-06-20T17:14:35.124Z,25.25
2019-06-20T17:17:04.974Z,25.17
2019-06-20T17:19:34.779Z,25.14
2019-06-20T17:22:04.708Z,25.03
2019-06-20T17:24:34.477Z,25.07
2019-06-20T17:27:04.314Z,25.11
2019-06-20T17:29:34.715Z,25.19
2019-06-20T17:32:04.698Z,25.30
2019-06-20T17:34:34.608Z,25.25
2019-06-20T17:37:09.566Z,25.16
2019-06-20T17:39:39.301Z,25.09
2019-06-20T17:42:09.131Z,25.13
2019-06-20T17:44:39.145Z,25.09
2019-06-20T17:47:08.939Z,25.20
2019-06-20T17:49:39.052Z,25.12
2019-06-20T17:52:08.916Z,25.09
2019-06-20T17:54:38.748Z,25.11
2019-06-20T17:57:08.539Z,25.06
2019-06-20T17:59:38.325Z,25.02
2019-06-20T18:02:08.156Z,25.10
2019-06-20T18:04:37.954Z,25.08
2019-06-20T18:07:07.812Z,25.15
2019-06-20T18:09:37.942Z,25.07
2019-06-20T18:12:09.329Z,25.18
2019-06-20T18:14:39.123Z,25.16
2019-06-20T18:17:08.916Z,25.11
2019-06-20T18:19:38.721Z,25.13
2019-06-20T18:22:08.536Z,25.00
2019-06-20T18:24:38.364Z,25.01
2019-06-20T18:27:08.229Z,24.94
2019-06-20T18:29:38.231Z,24.83
2019-06-20T18:32:08.056Z,24.90
2019-06-20T18:34:37.840Z,24.81
2019-06-20T18:37:07.703Z,24.79
2019-06-20T18:39:37.470Z,24.75
2019-06-20T18:42:07.348Z,24.79
2019-06-20T18:44:37.123Z,24.79
2019-06-20T18:47:06.921Z,24.70
2019-06-20T18:49:36.710Z,24.73
2019-06-20T18:52:06.572Z,24.69
2019-06-20T18:54:36.301Z,24.58
2019-06-20T18:57:06.148Z,24.60
2019-06-20T18:59:35.940Z,24.52
2019-06-20T19:02:07.382Z,24.48
2019-06-20T19:04:48.025Z,24.47
2019-06-20T19:07:09.021Z,24.46
2019-06-20T19:09:38.806Z,24.43
2019-06-20T19:12:08.899Z,24.45
2019-06-20T19:14:38.775Z,24.48
2019-06-20T19:17:08.629Z,24.43
2019-06-20T19:19:38.415Z,24.37
2019-06-20T19:22:08.352Z,24.26
2019-06-20T19:24:38.236Z,24.36
2019-06-20T19:27:08.029Z,24.36
2019-06-20T19:29:38.027Z,24.30
2019-06-20T19:32:07.809Z,24.33
2019-06-20T19:34:37.623Z,24.21
2019-06-20T19:37:07.492Z,24.32
2019-06-20T19:39:37.282Z,24.35
2019-06-20T19:42:07.112Z,24.35
2019-06-20T19:44:37.640Z,24.33
2019-06-20T19:47:07.630Z,24.31
2019-06-20T19:49:37.558Z,24.31
2019-06-20T19:52:07.452Z,24.25
2019-06-20T19:54:37.292Z,24.20
2019-06-20T19:57:07.263Z,24.14
2019-06-20T19:59:37.025Z,24.14
2019-06-20T20:02:07.219Z,24.14
2019-06-20T20:04:36.996Z,24.13
2019-06-20T20:07:06.841Z,24.01
2019-06-20T20:09:36.684Z,24.01
2019-06-20T20:12:06.455Z,24.02
2019-06-20T20:14:36.726Z,24.02
2019-06-20T20:17:06.638Z,24.00
2019-06-20T20:19:36.678Z,23.96
2019-06-20T20:22:07.272Z,23.85
2019-06-20T20:24:37.165Z,23.86
2019-06-20T20:27:07.098Z,23.86
2019-06-20T20:29:36.840Z,23.88
2019-06-20T20:32:06.840Z,23.88
2019-06-20T20:34:36.754Z,23.89
2019-06-20T20:37:06.571Z,23.90
2019-06-20T20:39:36.379Z,23.89
2019-06-20T20:42:06.557Z,23.89
2019-06-20T20:44:36.357Z,23.83
2019-06-20T20:47:06.203Z,23.84
2019-06-20T20:49:36.146Z,23.83
2019-06-20T20:52:06.293Z,23.80
2019-06-20T20:54:36.220Z,23.80
2019-06-20T20:57:05.993Z,23.80
2019-06-20T20:59:35.776Z,23.74
2019-06-20T21:02:05.548Z,23.71
2019-06-20T21:04:35.311Z,23.67
2019-06-20T21:07:05.091Z,23.59
2019-06-20T21:09:34.935Z,23.55
2019-06-20T21:12:05.138Z,23.45
2019-06-20T21:14:35.126Z,23.39
2019-06-20T21:17:05.122Z,23.34
2019-06-20T21:19:34.920Z,23.27
2019-06-20T21:22:04.741Z,23.26
2019-06-20T21:24:34.682Z,23.17
2019-06-20T21:27:04.559Z,23.21
2019-06-20T21:29:34.363Z,23.21
2019-06-20T21:32:04.167Z,23.20
2019-06-20T21:34:34.012Z,23.20
2019-06-20T21:37:03.781Z,23.21
2019-06-20T21:39:33.569Z,23.21
2019-06-20T21:42:03.368Z,23.18
2019-06-20T21:44:33.227Z,23.19
2019-06-20T21:47:03.373Z,23.20
2019-06-20T21:49:33.186Z,23.19
2019-06-20T21:52:03.254Z,23.19
2019-06-20T21:54:34.778Z,23.18
2019-06-20T21:57:05.807Z,23.18
2019-06-20T21:59:35.588Z,23.18
2019-06-20T22:02:06.890Z,23.17
2019-06-20T22:04:37.023Z,23.18
2019-06-20T22:07:06.822Z,23.15
2019-06-20T22:09:36.947Z,23.14
2019-06-20T22:12:06.918Z,23.14
2019-06-20T22:14:36.803Z,23.05
2019-06-20T22:17:07.362Z,22.99
2019-06-20T22:19:37.170Z,22.89
2019-06-20T22:22:07.017Z,22.79
2019-06-20T22:24:37.368Z,22.70
2019-06-20T22:27:08.144Z,22.65
2019-06-20T22:29:37.947Z,22.48
2019-06-20T22:32:07.715Z,22.32
2019-06-20T22:34:38.093Z,22.20
2019-06-20T22:37:08.088Z,22.08
2019-06-20T22:39:38.474Z,22.05
2019-06-20T22:42:09.889Z,21.95
2019-06-20T22:44:39.687Z,21.87
2019-06-20T22:47:09.488Z,21.87
2019-06-20T22:49:39.339Z,21.83
2019-06-20T22:52:09.451Z,21.64
2019-06-20T22:54:39.710Z,21.66
2019-06-20T22:57:11.124Z,21.68
2019-06-20T22:59:40.898Z,21.64
2019-06-20T23:02:10.988Z,21.47
2019-06-20T23:04:40.751Z,21.47
2019-06-20T23:07:10.527Z,21.49
2019-06-20T23:09:40.309Z,21.51
2019-06-20T23:12:10.437Z,21.48
2019-06-20T23:14:40.223Z,21.42
2019-06-20T23:17:10.028Z,21.37
2019-06-20T23:19:40.064Z,21.41
2019-06-20T23:22:09.830Z,21.35
2019-06-20T23:24:39.618Z,21.33
2019-06-20T23:27:09.449Z,21.28
2019-06-20T23:29:39.238Z,21.39
2019-06-20T23:32:09.039Z,21.24
2019-06-20T23:34:38.830Z,21.19
2019-06-20T23:37:12.567Z,21.22
2019-06-20T23:39:40.357Z,21.15
2019-06-20T23:42:10.154Z,21.21
2019-06-20T23:44:40.245Z,21.10
2019-06-20T23:47:10.044Z,21.03
2019-06-20T23:49:39.793Z,21.02
2019-06-20T23:52:14.839Z,21.02
2019-06-20T23:54:44.929Z,20.86
2019-06-20T23:57:14.713Z,20.89
2019-06-20T23:59:44.463Z,20.83
